sensor_id;sensor_type;location;lat;lon;timestamp;P1;durP1;ratioP1;P2;durP2;ratioP2
59728;SDS011;45588;51.598;5.618;2022-07-23T00:01:26;9.20;;;7.25;;
59728;SDS011;45588;51.598;5.618;2022-07-23T00:03:52;8.63;;;7.13;;
59728;SDS011;45588;51.598;5.618;2022-07-23T00:06:19;8.68;;;7.20;;
59728;SDS011;45588;51.598;5.618;2022-07-23T00:08:44;11.27;;;8.65;;
59728;SDS011;45588;51.598;5.618;2022-07-23T00:11:09;8.48;;;7.25;;
59728;SDS011;45588;51.598;5.618;2022-07-23T00:13:35;7.55;;;6.18;;
59728;SDS011;45588;51.598;5.618;2022-07-23T00:16:00;12.48;;;7.90;;
59728;SDS011;45588;51.598;5.618;2022-07-23T00:18:26;9.23;;;7.80;;
59728;SDS011;45588;51.598;5.618;2022-07-23T00:20:51;11.07;;;8.05;;
59728;SDS011;45588;51.598;5.618;2022-07-23T00:23:16;9.52;;;8.23;;
59728;SDS011;45588;51.598;5.618;2022-07-23T00:25:42;9.43;;;8.40;;
59728;SDS011;45588;51.598;5.618;2022-07-23T00:28:07;11.30;;;9.13;;
59728;SDS011;45588;51.598;5.618;2022-07-23T00:30:33;9.75;;;7.05;;
59728;SDS011;45588;51.598;5.618;2022-07-23T00:32:59;12.38;;;7.30;;
59728;SDS011;45588;51.598;5.618;2022-07-23T00:35:26;10.35;;;7.97;;
59728;SDS011;45588;51.598;5.618;2022-07-23T00:37:54;13.25;;;8.15;;
59728;SDS011;45588;51.598;5.618;2022-07-23T00:40:20;8.85;;;7.63;;
59728;SDS011;45588;51.598;5.618;2022-07-23T00:42:45;10.07;;;8.25;;
59728;SDS011;45588;51.598;5.618;2022-07-23T00:45:11;11.18;;;7.70;;
59728;SDS011;45588;51.598;5.618;2022-07-23T00:47:37;12.25;;;8.18;;
59728;SDS011;45588;51.598;5.618;2022-07-23T00:50:03;11.35;;;8.02;;
59728;SDS011;45588;51.598;5.618;2022-07-23T00:52:29;10.52;;;7.70;;
59728;SDS011;45588;51.598;5.618;2022-07-23T00:54:56;12.32;;;7.07;;
59728;SDS011;45588;51.598;5.618;2022-07-23T00:57:22;10.40;;;8.13;;
59728;SDS011;45588;51.598;5.618;2022-07-23T00:59:47;9.02;;;6.43;;
59728;SDS011;45588;51.598;5.618;2022-07-23T01:02:12;8.63;;;7.47;;
59728;SDS011;45588;51.598;5.618;2022-07-23T01:04:38;12.13;;;8.40;;
59728;SDS011;45588;51.598;5.618;2022-07-23T01:07:03;14.02;;;7.72;;
59728;SDS011;45588;51.598;5.618;2022-07-23T01:09:29;9.70;;;8.25;;
59728;SDS011;45588;51.598;5.618;2022-07-23T01:11:55;10.20;;;6.60;;
59728;SDS011;45588;51.598;5.618;2022-07-23T01:14:22;11.70;;;7.57;;
59728;SDS011;45588;51.598;5.618;2022-07-23T01:16:47;10.02;;;8.13;;
59728;SDS011;45588;51.598;5.618;2022-07-23T01:19:14;11.55;;;9.00;;
59728;SDS011;45588;51.598;5.618;2022-07-23T01:21:41;9.10;;;8.10;;
59728;SDS011;45588;51.598;5.618;2022-07-23T01:24:08;9.70;;;8.60;;
59728;SDS011;45588;51.598;5.618;2022-07-23T01:26:34;9.60;;;7.18;;
59728;SDS011;45588;51.598;5.618;2022-07-23T01:29:01;8.48;;;6.55;;
59728;SDS011;45588;51.598;5.618;2022-07-23T01:31:26;10.38;;;7.85;;
59728;SDS011;45588;51.598;5.618;2022-07-23T01:33:52;8.70;;;6.90;;
59728;SDS011;45588;51.598;5.618;2022-07-23T01:36:17;9.20;;;7.47;;
59728;SDS011;45588;51.598;5.618;2022-07-23T01:38:43;8.00;;;5.43;;
59728;SDS011;45588;51.598;5.618;2022-07-23T01:41:08;9.90;;;8.60;;
59728;SDS011;45588;51.598;5.618;2022-07-23T01:43:33;8.82;;;7.95;;
59728;SDS011;45588;51.598;5.618;2022-07-23T01:45:59;9.85;;;8.15;;
59728;SDS011;45588;51.598;5.618;2022-07-23T01:48:24;11.55;;;7.45;;
59728;SDS011;45588;51.598;5.618;2022-07-23T01:50:49;10.68;;;7.68;;
59728;SDS011;45588;51.598;5.618;2022-07-23T01:53:15;9.70;;;8.07;;
59728;SDS011;45588;51.598;5.618;2022-07-23T01:55:40;9.15;;;8.23;;
59728;SDS011;45588;51.598;5.618;2022-07-23T01:58:06;9.70;;;8.68;;
59728;SDS011;45588;51.598;5.618;2022-07-23T02:00:31;9.93;;;7.40;;
59728;SDS011;45588;51.598;5.618;2022-07-23T02:02:57;7.40;;;6.00;;
59728;SDS011;45588;51.598;5.618;2022-07-23T02:05:26;10.20;;;8.57;;
59728;SDS011;45588;51.598;5.618;2022-07-23T02:07:53;9.27;;;7.97;;
59728;SDS011;45588;51.598;5.618;2022-07-23T02:10:19;8.77;;;6.43;;
59728;SDS011;45588;51.598;5.618;2022-07-23T02:12:44;11.07;;;9.60;;
59728;SDS011;45588;51.598;5.618;2022-07-23T02:15:10;15.70;;;6.55;;
59728;SDS011;45588;51.598;5.618;2022-07-23T02:17:35;14.45;;;8.85;;
59728;SDS011;45588;51.598;5.618;2022-07-23T02:20:01;10.63;;;9.57;;
59728;SDS011;45588;51.598;5.618;2022-07-23T02:22:26;8.77;;;6.22;;
59728;SDS011;45588;51.598;5.618;2022-07-23T02:24:51;10.63;;;6.60;;
59728;SDS011;45588;51.598;5.618;2022-07-23T02:27:17;9.68;;;8.88;;
59728;SDS011;45588;51.598;5.618;2022-07-23T02:29:42;9.85;;;6.50;;
59728;SDS011;45588;51.598;5.618;2022-07-23T02:32:07;9.00;;;6.32;;
59728;SDS011;45588;51.598;5.618;2022-07-23T02:34:33;7.40;;;6.03;;
59728;SDS011;45588;51.598;5.618;2022-07-23T02:36:58;12.85;;;9.65;;
59728;SDS011;45588;51.598;5.618;2022-07-23T02:39:23;11.80;;;9.55;;
59728;SDS011;45588;51.598;5.618;2022-07-23T02:41:48;9.43;;;7.63;;
59728;SDS011;45588;51.598;5.618;2022-07-23T02:44:14;7.45;;;5.70;;
59728;SDS011;45588;51.598;5.618;2022-07-23T02:46:39;9.13;;;7.55;;
59728;SDS011;45588;51.598;5.618;2022-07-23T02:49:04;10.88;;;6.13;;
59728;SDS011;45588;51.598;5.618;2022-07-23T02:51:30;9.55;;;8.50;;
59728;SDS011;45588;51.598;5.618;2022-07-23T02:53:55;11.25;;;10.07;;
59728;SDS011;45588;51.598;5.618;2022-07-23T02:56:21;11.35;;;9.95;;
59728;SDS011;45588;51.598;5.618;2022-07-23T02:58:46;7.28;;;6.55;;
59728;SDS011;45588;51.598;5.618;2022-07-23T03:01:11;10.05;;;6.68;;
59728;SDS011;45588;51.598;5.618;2022-07-23T03:03:37;10.18;;;9.10;;
59728;SDS011;45588;51.598;5.618;2022-07-23T03:06:02;9.15;;;6.57;;
59728;SDS011;45588;51.598;5.618;2022-07-23T03:08:27;12.48;;;9.27;;
59728;SDS011;45588;51.598;5.618;2022-07-23T03:10:54;11.48;;;8.90;;
59728;SDS011;45588;51.598;5.618;2022-07-23T03:13:19;17.40;;;10.73;;
59728;SDS011;45588;51.598;5.618;2022-07-23T03:15:44;14.45;;;9.27;;
59728;SDS011;45588;51.598;5.618;2022-07-23T03:18:10;12.98;;;7.65;;
59728;SDS011;45588;51.598;5.618;2022-07-23T03:20:35;10.63;;;6.45;;
59728;SDS011;45588;51.598;5.618;2022-07-23T03:23:01;13.98;;;9.90;;
59728;SDS011;45588;51.598;5.618;2022-07-23T03:25:26;10.57;;;9.55;;
59728;SDS011;45588;51.598;5.618;2022-07-23T03:27:51;9.95;;;8.73;;
59728;SDS011;45588;51.598;5.618;2022-07-23T03:30:16;4.78;;;4.25;;
59728;SDS011;45588;51.598;5.618;2022-07-23T03:32:42;9.57;;;8.07;;
59728;SDS011;45588;51.598;5.618;2022-07-23T03:35:07;12.43;;;9.88;;
59728;SDS011;45588;51.598;5.618;2022-07-23T03:37:33;9.02;;;5.97;;
59728;SDS011;45588;51.598;5.618;2022-07-23T03:39:58;11.15;;;9.30;;
59728;SDS011;45588;51.598;5.618;2022-07-23T03:42:24;11.10;;;9.77;;
59728;SDS011;45588;51.598;5.618;2022-07-23T03:44:49;10.52;;;9.13;;
59728;SDS011;45588;51.598;5.618;2022-07-23T03:47:14;12.73;;;9.38;;
59728;SDS011;45588;51.598;5.618;2022-07-23T03:49:41;10.10;;;9.10;;
59728;SDS011;45588;51.598;5.618;2022-07-23T03:52:07;18.13;;;10.82;;
59728;SDS011;45588;51.598;5.618;2022-07-23T03:54:33;9.60;;;7.15;;
59728;SDS011;45588;51.598;5.618;2022-07-23T03:56:58;15.18;;;10.98;;
59728;SDS011;45588;51.598;5.618;2022-07-23T03:59:23;14.57;;;8.18;;
59728;SDS011;45588;51.598;5.618;2022-07-23T04:01:49;15.60;;;11.18;;
59728;SDS011;45588;51.598;5.618;2022-07-23T04:04:14;19.80;;;10.82;;
59728;SDS011;45588;51.598;5.618;2022-07-23T04:06:39;12.45;;;11.15;;
59728;SDS011;45588;51.598;5.618;2022-07-23T04:09:05;9.07;;;7.63;;
59728;SDS011;45588;51.598;5.618;2022-07-23T04:11:30;13.95;;;12.23;;
59728;SDS011;45588;51.598;5.618;2022-07-23T04:13:56;10.15;;;8.00;;
59728;SDS011;45588;51.598;5.618;2022-07-23T04:16:21;13.32;;;11.82;;
59728;SDS011;45588;51.598;5.618;2022-07-23T04:18:46;15.52;;;12.10;;
59728;SDS011;45588;51.598;5.618;2022-07-23T04:21:12;13.25;;;11.25;;
59728;SDS011;45588;51.598;5.618;2022-07-23T04:23:37;12.35;;;10.63;;
59728;SDS011;45588;51.598;5.618;2022-07-23T04:26:02;14.05;;;9.63;;
59728;SDS011;45588;51.598;5.618;2022-07-23T04:28:27;11.88;;;7.68;;
59728;SDS011;45588;51.598;5.618;2022-07-23T04:30:55;13.13;;;8.98;;
59728;SDS011;45588;51.598;5.618;2022-07-23T04:33:21;12.23;;;8.75;;
59728;SDS011;45588;51.598;5.618;2022-07-23T04:35:46;9.02;;;7.32;;
59728;SDS011;45588;51.598;5.618;2022-07-23T04:38:12;16.25;;;8.25;;
59728;SDS011;45588;51.598;5.618;2022-07-23T04:40:37;11.13;;;9.13;;
59728;SDS011;45588;51.598;5.618;2022-07-23T04:43:02;9.40;;;8.10;;
59728;SDS011;45588;51.598;5.618;2022-07-23T04:45:28;10.55;;;7.22;;
59728;SDS011;45588;51.598;5.618;2022-07-23T04:47:53;12.32;;;6.78;;
59728;SDS011;45588;51.598;5.618;2022-07-23T04:50:18;11.20;;;8.32;;
59728;SDS011;45588;51.598;5.618;2022-07-23T04:52:46;10.50;;;6.88;;
59728;SDS011;45588;51.598;5.618;2022-07-23T04:55:12;9.00;;;5.57;;
59728;SDS011;45588;51.598;5.618;2022-07-23T04:57:38;9.10;;;7.85;;
59728;SDS011;45588;51.598;5.618;2022-07-23T05:00:03;11.07;;;9.15;;
59728;SDS011;45588;51.598;5.618;2022-07-23T05:02:29;9.18;;;7.75;;
59728;SDS011;45588;51.598;5.618;2022-07-23T05:04:54;13.60;;;10.50;;
59728;SDS011;45588;51.598;5.618;2022-07-23T05:07:20;10.02;;;9.02;;
59728;SDS011;45588;51.598;5.618;2022-07-23T05:09:45;12.88;;;9.02;;
59728;SDS011;45588;51.598;5.618;2022-07-23T05:12:10;14.35;;;10.75;;
59728;SDS011;45588;51.598;5.618;2022-07-23T05:14:35;13.55;;;10.43;;
59728;SDS011;45588;51.598;5.618;2022-07-23T05:17:01;11.88;;;10.68;;
59728;SDS011;45588;51.598;5.618;2022-07-23T05:19:26;11.30;;;9.45;;
59728;SDS011;45588;51.598;5.618;2022-07-23T05:21:51;15.57;;;11.77;;
59728;SDS011;45588;51.598;5.618;2022-07-23T05:24:17;13.13;;;11.82;;
59728;SDS011;45588;51.598;5.618;2022-07-23T05:26:42;12.00;;;10.52;;
59728;SDS011;45588;51.598;5.618;2022-07-23T05:29:07;11.20;;;9.82;;
59728;SDS011;45588;51.598;5.618;2022-07-23T05:31:33;15.77;;;11.45;;
59728;SDS011;45588;51.598;5.618;2022-07-23T05:33:58;11.13;;;8.00;;
59728;SDS011;45588;51.598;5.618;2022-07-23T05:36:23;12.27;;;10.25;;
59728;SDS011;45588;51.598;5.618;2022-07-23T05:38:49;13.93;;;11.32;;
59728;SDS011;45588;51.598;5.618;2022-07-23T05:41:15;13.70;;;12.18;;
59728;SDS011;45588;51.598;5.618;2022-07-23T05:43:40;14.52;;;12.82;;
59728;SDS011;45588;51.598;5.618;2022-07-23T05:46:05;15.18;;;12.00;;
59728;SDS011;45588;51.598;5.618;2022-07-23T05:48:30;15.27;;;12.13;;
59728;SDS011;45588;51.598;5.618;2022-07-23T05:50:56;16.50;;;11.68;;
59728;SDS011;45588;51.598;5.618;2022-07-23T05:53:22;14.30;;;12.65;;
59728;SDS011;45588;51.598;5.618;2022-07-23T05:55:47;15.10;;;12.50;;
59728;SDS011;45588;51.598;5.618;2022-07-23T05:58:12;21.15;;;15.60;;
59728;SDS011;45588;51.598;5.618;2022-07-23T06:00:37;13.32;;;11.93;;
59728;SDS011;45588;51.598;5.618;2022-07-23T06:03:03;13.18;;;11.32;;
59728;SDS011;45588;51.598;5.618;2022-07-23T06:05:28;15.20;;;13.00;;
59728;SDS011;45588;51.598;5.618;2022-07-23T06:07:53;25.20;;;13.43;;
59728;SDS011;45588;51.598;5.618;2022-07-23T06:10:19;12.38;;;11.07;;
59728;SDS011;45588;51.598;5.618;2022-07-23T06:12:44;13.23;;;10.60;;
59728;SDS011;45588;51.598;5.618;2022-07-23T06:15:10;14.10;;;10.10;;
59728;SDS011;45588;51.598;5.618;2022-07-23T06:17:35;11.05;;;9.82;;
59728;SDS011;45588;51.598;5.618;2022-07-23T06:20:04;11.02;;;9.05;;
59728;SDS011;45588;51.598;5.618;2022-07-23T06:22:30;9.85;;;8.50;;
59728;SDS011;45588;51.598;5.618;2022-07-23T06:24:55;9.13;;;8.10;;
59728;SDS011;45588;51.598;5.618;2022-07-23T06:27:20;10.05;;;9.07;;
59728;SDS011;45588;51.598;5.618;2022-07-23T06:29:46;13.73;;;9.38;;
59728;SDS011;45588;51.598;5.618;2022-07-23T06:32:11;11.05;;;9.05;;
59728;SDS011;45588;51.598;5.618;2022-07-23T06:34:36;12.02;;;8.20;;
59728;SDS011;45588;51.598;5.618;2022-07-23T06:37:02;10.90;;;9.57;;
59728;SDS011;45588;51.598;5.618;2022-07-23T06:39:27;14.15;;;11.32;;
59728;SDS011;45588;51.598;5.618;2022-07-23T06:41:52;12.25;;;11.15;;
59728;SDS011;45588;51.598;5.618;2022-07-23T06:44:18;13.75;;;11.43;;
59728;SDS011;45588;51.598;5.618;2022-07-23T06:46:43;12.70;;;11.18;;
59728;SDS011;45588;51.598;5.618;2022-07-23T06:49:09;11.20;;;7.80;;
59728;SDS011;45588;51.598;5.618;2022-07-23T06:51:34;13.80;;;10.30;;
59728;SDS011;45588;51.598;5.618;2022-07-23T06:53:59;10.77;;;9.77;;
59728;SDS011;45588;51.598;5.618;2022-07-23T06:56:25;11.68;;;10.57;;
59728;SDS011;45588;51.598;5.618;2022-07-23T06:58:50;12.63;;;10.43;;
59728;SDS011;45588;51.598;5.618;2022-07-23T07:01:15;10.52;;;9.45;;
59728;SDS011;45588;51.598;5.618;2022-07-23T07:03:41;12.77;;;9.48;;
59728;SDS011;45588;51.598;5.618;2022-07-23T07:06:06;10.65;;;9.48;;
59728;SDS011;45588;51.598;5.618;2022-07-23T07:08:32;11.48;;;9.90;;
59728;SDS011;45588;51.598;5.618;2022-07-23T07:10:57;11.00;;;9.82;;
59728;SDS011;45588;51.598;5.618;2022-07-23T07:13:22;10.95;;;9.90;;
59728;SDS011;45588;51.598;5.618;2022-07-23T07:15:47;15.32;;;10.82;;
59728;SDS011;45588;51.598;5.618;2022-07-23T07:18:13;11.30;;;8.75;;
59728;SDS011;45588;51.598;5.618;2022-07-23T07:20:38;13.18;;;8.98;;
59728;SDS011;45588;51.598;5.618;2022-07-23T07:23:03;10.02;;;9.02;;
59728;SDS011;45588;51.598;5.618;2022-07-23T07:25:29;11.23;;;9.50;;
59728;SDS011;45588;51.598;5.618;2022-07-23T07:27:54;9.48;;;7.88;;
59728;SDS011;45588;51.598;5.618;2022-07-23T07:30:19;9.07;;;8.15;;
59728;SDS011;45588;51.598;5.618;2022-07-23T07:32:45;8.75;;;7.80;;
59728;SDS011;45588;51.598;5.618;2022-07-23T07:35:10;11.32;;;8.60;;
59728;SDS011;45588;51.598;5.618;2022-07-23T07:37:35;9.13;;;7.28;;
59728;SDS011;45588;51.598;5.618;2022-07-23T07:40:01;9.70;;;5.70;;
59728;SDS011;45588;51.598;5.618;2022-07-23T07:42:26;9.63;;;6.53;;
59728;SDS011;45588;51.598;5.618;2022-07-23T07:44:51;9.48;;;6.70;;
59728;SDS011;45588;51.598;5.618;2022-07-23T07:47:17;8.48;;;7.13;;
59728;SDS011;45588;51.598;5.618;2022-07-23T07:49:42;10.02;;;6.22;;
59728;SDS011;45588;51.598;5.618;2022-07-23T07:52:08;7.80;;;6.07;;
59728;SDS011;45588;51.598;5.618;2022-07-23T07:54:34;7.75;;;6.55;;
59728;SDS011;45588;51.598;5.618;2022-07-23T07:56:59;7.95;;;6.10;;
59728;SDS011;45588;51.598;5.618;2022-07-23T07:59:24;7.85;;;6.32;;
59728;SDS011;45588;51.598;5.618;2022-07-23T08:01:50;14.98;;;7.25;;
59728;SDS011;45588;51.598;5.618;2022-07-23T08:04:15;8.15;;;6.20;;
59728;SDS011;45588;51.598;5.618;2022-07-23T08:06:41;9.23;;;6.20;;
59728;SDS011;45588;51.598;5.618;2022-07-23T08:09:06;9.52;;;6.63;;
59728;SDS011;45588;51.598;5.618;2022-07-23T08:11:31;9.65;;;6.13;;
59728;SDS011;45588;51.598;5.618;2022-07-23T08:13:57;7.93;;;7.13;;
59728;SDS011;45588;51.598;5.618;2022-07-23T08:16:22;11.18;;;7.00;;
59728;SDS011;45588;51.598;5.618;2022-07-23T08:18:47;7.47;;;6.57;;
59728;SDS011;45588;51.598;5.618;2022-07-23T08:21:12;8.82;;;7.68;;
59728;SDS011;45588;51.598;5.618;2022-07-23T08:23:38;8.45;;;7.60;;
59728;SDS011;45588;51.598;5.618;2022-07-23T08:26:03;8.50;;;7.22;;
59728;SDS011;45588;51.598;5.618;2022-07-23T08:28:29;9.02;;;8.13;;
59728;SDS011;45588;51.598;5.618;2022-07-23T08:30:57;9.98;;;7.82;;
59728;SDS011;45588;51.598;5.618;2022-07-23T08:33:23;7.35;;;5.80;;
59728;SDS011;45588;51.598;5.618;2022-07-23T08:35:49;8.25;;;6.78;;
59728;SDS011;45588;51.598;5.618;2022-07-23T08:38:16;8.40;;;6.38;;
59728;SDS011;45588;51.598;5.618;2022-07-23T08:40:43;7.72;;;5.97;;
59728;SDS011;45588;51.598;5.618;2022-07-23T08:43:11;7.18;;;5.97;;
59728;SDS011;45588;51.598;5.618;2022-07-23T08:45:39;9.00;;;7.00;;
59728;SDS011;45588;51.598;5.618;2022-07-23T08:51:03;8.05;;;5.93;;
59728;SDS011;45588;51.598;5.618;2022-07-23T08:53:29;7.15;;;6.45;;
59728;SDS011;45588;51.598;5.618;2022-07-23T08:55:58;8.13;;;6.70;;
59728;SDS011;45588;51.598;5.618;2022-07-23T08:58:26;7.70;;;6.47;;
59728;SDS011;45588;51.598;5.618;2022-07-23T09:00:52;10.10;;;6.22;;
59728;SDS011;45588;51.598;5.618;2022-07-23T09:03:21;8.73;;;7.05;;
59728;SDS011;45588;51.598;5.618;2022-07-23T09:05:52;8.80;;;7.10;;
59728;SDS011;45588;51.598;5.618;2022-07-23T09:08:22;9.38;;;6.32;;
59728;SDS011;45588;51.598;5.618;2022-07-23T09:10:52;7.18;;;5.72;;
59728;SDS011;45588;51.598;5.618;2022-07-23T09:13:23;7.43;;;5.45;;
59728;SDS011;45588;51.598;5.618;2022-07-23T09:15:53;6.25;;;4.85;;
59728;SDS011;45588;51.598;5.618;2022-07-23T09:18:19;6.78;;;4.95;;
59728;SDS011;45588;51.598;5.618;2022-07-23T09:21:04;8.38;;;4.50;;
59728;SDS011;45588;51.598;5.618;2022-07-23T09:24:04;5.15;;;4.65;;
59728;SDS011;45588;51.598;5.618;2022-07-23T09:26:34;6.03;;;4.97;;
59728;SDS011;45588;51.598;5.618;2022-07-23T09:29:03;6.68;;;5.95;;
59728;SDS011;45588;51.598;5.618;2022-07-23T09:34:23;5.07;;;4.68;;
59728;SDS011;45588;51.598;5.618;2022-07-23T09:36:49;6.68;;;4.82;;
59728;SDS011;45588;51.598;5.618;2022-07-23T09:39:26;10.90;;;6.20;;
59728;SDS011;45588;51.598;5.618;2022-07-23T09:41:53;7.47;;;5.03;;
59728;SDS011;45588;51.598;5.618;2022-07-23T09:44:19;5.57;;;4.93;;
59728;SDS011;45588;51.598;5.618;2022-07-23T09:46:48;4.90;;;4.50;;
59728;SDS011;45588;51.598;5.618;2022-07-23T09:52:00;9.13;;;6.15;;
59728;SDS011;45588;51.598;5.618;2022-07-23T09:57:01;9.30;;;7.15;;
59728;SDS011;45588;51.598;5.618;2022-07-23T09:59:34;6.20;;;5.43;;
59728;SDS011;45588;51.598;5.618;2022-07-23T10:02:01;7.65;;;5.22;;
59728;SDS011;45588;51.598;5.618;2022-07-23T10:04:29;9.23;;;5.80;;
59728;SDS011;45588;51.598;5.618;2022-07-23T10:06:59;6.97;;;5.72;;
59728;SDS011;45588;51.598;5.618;2022-07-23T10:09:29;6.22;;;5.65;;
59728;SDS011;45588;51.598;5.618;2022-07-23T10:11:58;6.05;;;5.25;;
59728;SDS011;45588;51.598;5.618;2022-07-23T10:14:34;6.32;;;4.53;;
59728;SDS011;45588;51.598;5.618;2022-07-23T10:17:00;8.40;;;5.03;;
59728;SDS011;45588;51.598;5.618;2022-07-23T10:19:27;8.32;;;5.40;;
59728;SDS011;45588;51.598;5.618;2022-07-23T10:22:13;8.93;;;6.10;;
59728;SDS011;45588;51.598;5.618;2022-07-23T10:27:25;8.70;;;5.90;;
59728;SDS011;45588;51.598;5.618;2022-07-23T10:30:06;7.32;;;5.28;;
59728;SDS011;45588;51.598;5.618;2022-07-23T10:33:20;5.85;;;5.25;;
59728;SDS011;45588;51.598;5.618;2022-07-23T10:35:36;6.22;;;5.40;;
59728;SDS011;45588;51.598;5.618;2022-07-23T10:40:53;7.70;;;6.15;;
59728;SDS011;45588;51.598;5.618;2022-07-23T10:43:23;5.88;;;5.35;;
59728;SDS011;45588;51.598;5.618;2022-07-23T10:45:48;11.80;;;6.05;;
59728;SDS011;45588;51.598;5.618;2022-07-23T10:56:15;8.02;;;5.68;;
59728;SDS011;45588;51.598;5.618;2022-07-23T10:58:48;6.70;;;5.57;;
59728;SDS011;45588;51.598;5.618;2022-07-23T11:04:03;7.75;;;6.30;;
59728;SDS011;45588;51.598;5.618;2022-07-23T11:09:23;7.97;;;5.55;;
59728;SDS011;45588;51.598;5.618;2022-07-23T11:17:38;10.30;;;6.05;;
59728;SDS011;45588;51.598;5.618;2022-07-23T11:25:08;5.55;;;5.05;;
59728;SDS011;45588;51.598;5.618;2022-07-23T11:27:38;5.78;;;4.72;;
59728;SDS011;45588;51.598;5.618;2022-07-23T11:30:08;7.65;;;6.53;;
59728;SDS011;45588;51.598;5.618;2022-07-23T11:32:36;6.50;;;5.90;;
59728;SDS011;45588;51.598;5.618;2022-07-23T11:35:18;6.25;;;5.63;;
59728;SDS011;45588;51.598;5.618;2022-07-23T11:38:14;10.63;;;9.70;;
59728;SDS011;45588;51.598;5.618;2022-07-23T11:40:47;8.77;;;7.88;;
59728;SDS011;45588;51.598;5.618;2022-07-23T11:43:17;9.57;;;7.30;;
59728;SDS011;45588;51.598;5.618;2022-07-23T11:45:44;10.05;;;9.05;;
59728;SDS011;45588;51.598;5.618;2022-07-23T11:48:21;10.27;;;7.90;;
59728;SDS011;45588;51.598;5.618;2022-07-23T11:50:49;10.02;;;8.90;;
59728;SDS011;45588;51.598;5.618;2022-07-23T11:53:25;9.73;;;8.50;;
59728;SDS011;45588;51.598;5.618;2022-07-23T11:55:53;12.10;;;8.80;;
59728;SDS011;45588;51.598;5.618;2022-07-23T11:58:19;8.57;;;7.43;;
59728;SDS011;45588;51.598;5.618;2022-07-23T12:00:45;7.60;;;6.60;;
59728;SDS011;45588;51.598;5.618;2022-07-23T12:03:10;7.68;;;6.97;;
59728;SDS011;45588;51.598;5.618;2022-07-23T12:05:37;7.38;;;6.53;;
59728;SDS011;45588;51.598;5.618;2022-07-23T12:08:03;6.15;;;4.72;;
59728;SDS011;45588;51.598;5.618;2022-07-23T12:10:34;7.05;;;5.05;;
59728;SDS011;45588;51.598;5.618;2022-07-23T12:13:03;10.13;;;5.22;;
59728;SDS011;45588;51.598;5.618;2022-07-23T12:15:39;7.97;;;6.60;;
59728;SDS011;45588;51.598;5.618;2022-07-23T12:18:11;8.40;;;6.60;;
59728;SDS011;45588;51.598;5.618;2022-07-23T12:20:42;5.40;;;4.88;;
59728;SDS011;45588;51.598;5.618;2022-07-23T12:23:11;5.95;;;5.13;;
59728;SDS011;45588;51.598;5.618;2022-07-23T12:25:38;9.48;;;5.22;;
59728;SDS011;45588;51.598;5.618;2022-07-23T12:30:33;6.05;;;5.45;;
59728;SDS011;45588;51.598;5.618;2022-07-23T12:33:03;6.50;;;4.90;;
59728;SDS011;45588;51.598;5.618;2022-07-23T12:35:34;5.78;;;4.35;;
59728;SDS011;45588;51.598;5.618;2022-07-23T12:38:06;6.55;;;5.05;;
59728;SDS011;45588;51.598;5.618;2022-07-23T12:43:07;4.68;;;4.25;;
59728;SDS011;45588;51.598;5.618;2022-07-23T12:45:42;11.13;;;5.85;;
59728;SDS011;45588;51.598;5.618;2022-07-23T12:48:15;5.78;;;5.28;;
59728;SDS011;45588;51.598;5.618;2022-07-23T12:50:44;7.85;;;5.47;;
59728;SDS011;45588;51.598;5.618;2022-07-23T12:53:11;10.77;;;6.70;;
59728;SDS011;45588;51.598;5.618;2022-07-23T12:55:41;13.70;;;7.28;;
59728;SDS011;45588;51.598;5.618;2022-07-23T12:58:09;8.05;;;5.65;;
59728;SDS011;45588;51.598;5.618;2022-07-23T13:00:53;9.43;;;6.05;;
59728;SDS011;45588;51.598;5.618;2022-07-23T13:03:33;8.82;;;6.22;;
59728;SDS011;45588;51.598;5.618;2022-07-23T13:06:03;8.63;;;5.93;;
59728;SDS011;45588;51.598;5.618;2022-07-23T13:08:30;7.93;;;5.85;;
59728;SDS011;45588;51.598;5.618;2022-07-23T13:10:57;7.32;;;6.65;;
59728;SDS011;45588;51.598;5.618;2022-07-23T13:13:24;9.48;;;6.78;;
59728;SDS011;45588;51.598;5.618;2022-07-23T13:15:51;9.18;;;7.55;;
59728;SDS011;45588;51.598;5.618;2022-07-23T13:18:17;9.57;;;6.85;;
59728;SDS011;45588;51.598;5.618;2022-07-23T13:20:44;14.13;;;7.80;;
59728;SDS011;45588;51.598;5.618;2022-07-23T13:23:11;8.15;;;7.30;;
59728;SDS011;45588;51.598;5.618;2022-07-23T13:25:37;7.22;;;6.53;;
59728;SDS011;45588;51.598;5.618;2022-07-23T13:28:02;7.65;;;5.82;;
59728;SDS011;45588;51.598;5.618;2022-07-23T13:30:28;9.35;;;6.38;;
59728;SDS011;45588;51.598;5.618;2022-07-23T13:32:54;7.75;;;6.57;;
59728;SDS011;45588;51.598;5.618;2022-07-23T13:35:19;8.90;;;7.53;;
59728;SDS011;45588;51.598;5.618;2022-07-23T13:37:44;8.50;;;6.45;;
59728;SDS011;45588;51.598;5.618;2022-07-23T13:40:09;9.18;;;6.82;;
59728;SDS011;45588;51.598;5.618;2022-07-23T13:42:35;15.90;;;7.57;;
59728;SDS011;45588;51.598;5.618;2022-07-23T13:45:01;8.43;;;6.38;;
59728;SDS011;45588;51.598;5.618;2022-07-23T13:47:27;8.88;;;7.00;;
59728;SDS011;45588;51.598;5.618;2022-07-23T13:49:52;10.65;;;7.72;;
59728;SDS011;45588;51.598;5.618;2022-07-23T13:52:18;9.10;;;7.07;;
59728;SDS011;45588;51.598;5.618;2022-07-23T13:54:43;9.82;;;7.25;;
59728;SDS011;45588;51.598;5.618;2022-07-23T13:57:08;8.82;;;6.70;;
59728;SDS011;45588;51.598;5.618;2022-07-23T13:59:34;8.43;;;7.50;;
59728;SDS011;45588;51.598;5.618;2022-07-23T14:02:00;9.90;;;7.80;;
59728;SDS011;45588;51.598;5.618;2022-07-23T14:04:26;10.82;;;8.85;;
59728;SDS011;45588;51.598;5.618;2022-07-23T14:06:52;9.85;;;8.70;;
59728;SDS011;45588;51.598;5.618;2022-07-23T14:09:17;9.50;;;7.65;;
59728;SDS011;45588;51.598;5.618;2022-07-23T14:11:42;10.80;;;7.32;;
59728;SDS011;45588;51.598;5.618;2022-07-23T14:14:07;15.05;;;9.25;;
59728;SDS011;45588;51.598;5.618;2022-07-23T14:16:33;9.23;;;7.43;;
59728;SDS011;45588;51.598;5.618;2022-07-23T14:18:58;11.43;;;7.57;;
59728;SDS011;45588;51.598;5.618;2022-07-23T14:21:23;16.52;;;8.60;;
59728;SDS011;45588;51.598;5.618;2022-07-23T14:23:48;10.18;;;7.53;;
59728;SDS011;45588;51.598;5.618;2022-07-23T14:26:14;8.80;;;7.80;;
59728;SDS011;45588;51.598;5.618;2022-07-23T14:28:39;7.97;;;6.03;;
59728;SDS011;45588;51.598;5.618;2022-07-23T14:31:04;11.27;;;7.78;;
59728;SDS011;45588;51.598;5.618;2022-07-23T14:33:30;12.98;;;7.03;;
59728;SDS011;45588;51.598;5.618;2022-07-23T14:35:55;8.90;;;5.97;;
59728;SDS011;45588;51.598;5.618;2022-07-23T14:38:20;6.88;;;6.05;;
59728;SDS011;45588;51.598;5.618;2022-07-23T14:40:45;6.38;;;5.70;;
59728;SDS011;45588;51.598;5.618;2022-07-23T14:43:11;5.88;;;5.38;;
59728;SDS011;45588;51.598;5.618;2022-07-23T14:45:36;5.80;;;5.07;;
59728;SDS011;45588;51.598;5.618;2022-07-23T14:48:01;5.93;;;5.43;;
59728;SDS011;45588;51.598;5.618;2022-07-23T14:50:27;7.00;;;5.38;;
59728;SDS011;45588;51.598;5.618;2022-07-23T14:52:53;7.00;;;6.05;;
59728;SDS011;45588;51.598;5.618;2022-07-23T14:55:18;7.28;;;5.18;;
59728;SDS011;45588;51.598;5.618;2022-07-23T14:57:44;8.00;;;6.13;;
59728;SDS011;45588;51.598;5.618;2022-07-23T15:00:11;9.40;;;6.38;;
59728;SDS011;45588;51.598;5.618;2022-07-23T15:02:36;7.53;;;6.18;;
59728;SDS011;45588;51.598;5.618;2022-07-23T15:05:02;7.07;;;5.03;;
59728;SDS011;45588;51.598;5.618;2022-07-23T15:07:28;7.63;;;5.35;;
59728;SDS011;45588;51.598;5.618;2022-07-23T15:09:55;7.38;;;6.00;;
59728;SDS011;45588;51.598;5.618;2022-07-23T15:12:21;9.23;;;6.25;;
59728;SDS011;45588;51.598;5.618;2022-07-23T15:14:46;6.45;;;5.65;;
59728;SDS011;45588;51.598;5.618;2022-07-23T15:17:11;8.15;;;5.65;;
59728;SDS011;45588;51.598;5.618;2022-07-23T15:19:36;7.65;;;4.72;;
59728;SDS011;45588;51.598;5.618;2022-07-23T15:22:02;6.80;;;4.78;;
59728;SDS011;45588;51.598;5.618;2022-07-23T15:24:29;9.82;;;5.40;;